Details From KGJT - WALKER FLD
To KLVS - LAS VEGAS MUNI
Flight Number -
Tags generated
Created
Modified
Stats Distance 275 nm / 510 km
Max Altitude 27,600 ft / 8,412 m
Waypoints 4
Social Downloads 0
Likes 0
Share VATSIM

Download

Looking for another format? Having issues loading an existing format? Contact us
Advertisement - Login to hide

Notes

Basic altitude profile: - Ascent Rate: 2500ft/min - Ascent Speed: 250kts - Cruise Altitude: 35000ft - Cruise Speed: 420kts - Descent Rate: 1500ft/min - Descent Speed: 250kts

Route

KGJT HBU J206 ALS KLVS

ID Type Via Altitude Latitude Longitude Leg Dist Tot Dist Heading (true) Name
O KGJT APT - 0 ft / 0 m 39.12048˚ -108.52561˚ - 0 nm - WALKER FLD
HBU DME - 27,600 ft / 8,412 m 38.45215˚ -107.03979˚ 80 nm 80 nm 120° / 120° BLUE MESA VOR-DME
ALS VOR J206 (AWY-HI) 21,800 ft / 6,645 m 37.34917˚ -105.81553˚ 88 nm 168 nm 138° / 139° ALAMOSA VORTAC
O KLVS APT - 0 ft / 0 m 35.65415˚ -105.14244˚ 106 nm 275 nm 162° / 162° LAS VEGAS MUNI

Altitude Profile

Advertisement - Login to hide

Weather


0- 5 10 15 20 25 30 35+ Temperature / ° C

Clouds and Precipitation
Forecast for 2017-12-12 18:00 UTC. Updated an hour ago

Ground ~20,000 ft ~40,000 ft Winds

KGJT

Details ICAO KGJT (GJT)
Name WALKER FLD
Region United States
Timezone America/Denver (UTC-7.0)
Stats Elevation 4,858 ft / 1,481 m (AMSL)
Location 39.120479° -108.525609°
Runways 2
Magnetic Variation 9.833° E

METAR

KGJT 121553Z 10003KT 10SM CLR M01/M14 A3053 RMK AO2 SLP360 T10061139 $

Decode

TAF

TAF KGJT 121120Z 1212/1312 13005KT P6SM SKC FM122100 32004KT P6SM SKC

Decode

Departure Runways

ID Width Length Bearing (true) Bearing (mag) Surface Threshold Offset Overrun Length
04 75 ft / 23 m 5,495 ft / 1,675 m 54.33° 44.50° Asphalt 0 ft / 0 m 0 ft / 0 m
11 151 ft / 46 m 10,490 ft / 3,197 m 125.28° 115.45° Asphalt 0 ft / 0 m 98 ft / 30 m
22 75 ft / 23 m 5,495 ft / 1,675 m 234.34° 224.51° Asphalt 0 ft / 0 m 0 ft / 0 m
29 151 ft / 46 m 10,490 ft / 3,197 m 305.30° 295.47° Asphalt 0 ft / 0 m 98 ft / 30 m

KLVS

Details ICAO KLVS (LVS)
Name LAS VEGAS MUNI
Region United States
Timezone America/Denver (UTC-7.0)
Stats Elevation 6,877 ft / 2,096 m (AMSL)
Location 35.654149° -105.142439°
Runways 2
Magnetic Variation 7.932° E

METAR

KLVS 121553Z AUTO 20015KT 10SM CLR 04/M13 A3047 RMK AO2 SLP306 T00391133

Decode

TAF

KLVS 121124Z 1212/1312 20006KT P6SM SKC FM121800 19011KT P6SM SKC FM130300 32006KT P6SM SKC

Decode

Destination Runways

ID Width Length Bearing (true) Bearing (mag) Surface Threshold Offset Overrun Length
02 75 ft / 23 m 5,007 ft / 1,526 m 34.79° 26.86° Asphalt 0 ft / 0 m 0 ft / 0 m
14 75 ft / 23 m 8,208 ft / 2,502 m 151.74° 143.81° Asphalt 0 ft / 0 m 0 ft / 0 m
20 75 ft / 23 m 5,007 ft / 1,526 m 214.79° 206.86° Asphalt 0 ft / 0 m 0 ft / 0 m
32 75 ft / 23 m 8,208 ft / 2,502 m 331.75° 323.82° Asphalt 0 ft / 0 m 0 ft / 0 m